Terminal Aerodrome Forecast
Issued by NWS Boise, ID

Home | Current Version | Previous Version | Text Only | Print | Product List | Glossary On
Versions: 1 2 3 4 5 6 7 8 9 10 11 12
000
FTUS45 KBOI 191734
TAFBNO
TAF
KBNO 191734Z 1918/2018 27007KT P6SM SKC
     FM192000 26010G18KT P6SM SKC
     FM200200 28008KT P6SM SKC=

USA.gov is the U.S. government's official web portal to all federal, state and local government web resources and services.